createdAt,value
2022-12-07T00:00:54.202Z,2.70
2022-12-07T00:05:59.864Z,2.70
2022-12-07T00:11:11.533Z,2.60
2022-12-07T00:16:17.566Z,2.60
2022-12-07T00:21:22.487Z,2.70
2022-12-07T00:26:28.748Z,2.60
2022-12-07T00:31:36.880Z,2.60
2022-12-07T00:36:39.411Z,2.60
2022-12-07T00:41:42.279Z,2.50
2022-12-07T00:46:46.467Z,2.50
2022-12-07T00:51:50.239Z,2.60
2022-12-07T00:56:52.679Z,2.60
2022-12-07T01:01:55.396Z,2.60
2022-12-07T01:06:57.938Z,2.60
2022-12-07T01:12:00.472Z,2.60
2022-12-07T01:17:03.087Z,2.60
2022-12-07T01:22:05.604Z,2.60
2022-12-07T01:27:08.054Z,2.60
2022-12-07T01:32:11.097Z,2.60
2022-12-07T01:37:13.544Z,2.60
2022-12-07T01:42:16.160Z,2.60
2022-12-07T01:47:18.934Z,2.70
2022-12-07T01:52:26.842Z,2.60
2022-12-07T01:57:31.855Z,2.60
2022-12-07T02:02:38.898Z,2.60
2022-12-07T02:07:42.100Z,2.60
2022-12-07T02:12:48.310Z,2.50
2022-12-07T02:17:59.637Z,2.60
2022-12-07T02:23:11.462Z,2.50
2022-12-07T02:28:37.902Z,2.50
2022-12-07T02:33:55.583Z,2.50
2022-12-07T02:39:16.070Z,2.50
2022-12-07T02:44:23.171Z,2.50
2022-12-07T02:49:27.144Z,2.50
2022-12-07T02:54:29.713Z,2.50
2022-12-07T02:59:51.868Z,2.40
2022-12-07T03:05:28.864Z,2.50
2022-12-07T03:10:46.151Z,2.50
2022-12-07T03:15:57.639Z,2.50
2022-12-07T03:21:09.220Z,2.40
2022-12-07T03:26:15.578Z,2.50
2022-12-07T03:31:32.582Z,2.40
2022-12-07T03:37:01.679Z,2.30
2022-12-07T03:42:07.505Z,2.30
2022-12-07T03:47:33.176Z,2.30
2022-12-07T03:52:48.350Z,2.20
2022-12-07T03:57:55.954Z,2.30
2022-12-07T04:02:58.709Z,2.30
2022-12-07T04:08:01.327Z,2.30
2022-12-07T04:13:03.888Z,2.20
2022-12-07T04:18:06.544Z,2.20
2022-12-07T04:23:08.936Z,2.10
2022-12-07T04:28:11.338Z,2.10
2022-12-07T04:33:13.855Z,2.10
2022-12-07T04:38:16.330Z,2.10
2022-12-07T04:43:18.782Z,2.10
2022-12-07T04:48:21.246Z,2.10
2022-12-07T04:53:24.177Z,2.10
2022-12-07T04:58:26.669Z,2.10
2022-12-07T05:03:29.391Z,2.10
2022-12-07T05:08:33.291Z,2.10
2022-12-07T05:13:36.881Z,2.10
2022-12-07T05:18:39.449Z,2.20
2022-12-07T05:23:41.983Z,2.20
2022-12-07T05:28:44.446Z,2.20
2022-12-07T05:33:46.891Z,2.30
2022-12-07T05:38:49.397Z,2.30
2022-12-07T05:43:52.880Z,2.30
2022-12-07T05:48:55.340Z,5.80
2022-12-07T05:53:57.817Z,2.40
2022-12-07T05:59:19.074Z,2.40
2022-12-07T06:04:23.463Z,2.40
2022-12-07T06:09:27.615Z,2.40
2022-12-07T06:14:30.356Z,2.40
2022-12-07T06:19:34.837Z,2.50
2022-12-07T06:24:37.646Z,2.50
2022-12-07T06:29:40.124Z,2.50
2022-12-07T06:34:42.606Z,2.50
2022-12-07T06:39:45.094Z,2.50
2022-12-07T06:44:47.626Z,2.50
2022-12-07T06:49:50.267Z,2.60
2022-12-07T06:54:52.759Z,2.60
2022-12-07T06:59:55.251Z,2.60
2022-12-07T07:04:57.748Z,2.70
2022-12-07T07:10:00.629Z,2.80
2022-12-07T07:15:03.401Z,2.80
2022-12-07T07:20:06.730Z,2.80
2022-12-07T07:25:09.284Z,2.70
2022-12-07T07:30:12.348Z,2.70
2022-12-07T07:35:15.225Z,2.80
2022-12-07T07:40:18.035Z,2.80
2022-12-07T07:45:22.327Z,2.90
2022-12-07T07:50:24.976Z,2.90
2022-12-07T07:55:27.460Z,2.90
2022-12-07T08:00:29.897Z,2.90
2022-12-07T08:05:32.491Z,2.90
2022-12-07T08:10:36.404Z,2.90
2022-12-07T08:15:40.491Z,2.80
2022-12-07T08:20:43.760Z,2.90
2022-12-07T08:25:46.368Z,3.00
2022-12-07T08:30:49.186Z,3.10
2022-12-07T08:35:51.709Z,3.10
2022-12-07T08:40:58.432Z,3.10
2022-12-07T08:46:09.782Z,3.00
2022-12-07T08:51:12.787Z,3.10
2022-12-07T08:56:15.274Z,3.00
2022-12-07T09:01:17.868Z,2.90
2022-12-07T09:06:20.470Z,2.90
2022-12-07T09:11:28.387Z,2.80
2022-12-07T09:16:31.575Z,2.80
2022-12-07T09:21:34.278Z,2.90
2022-12-07T09:26:36.828Z,2.90
2022-12-07T09:31:39.526Z,2.80
2022-12-07T09:36:43.700Z,2.70
2022-12-07T09:41:46.980Z,2.70
2022-12-07T09:46:50.844Z,2.70
2022-12-07T09:52:10.402Z,2.60
2022-12-07T09:57:13.763Z,2.80
2022-12-07T10:02:51.400Z,2.90
2022-12-07T10:07:54.036Z,2.80
2022-12-07T10:13:08.760Z,2.80
2022-12-07T10:18:38.609Z,2.80
2022-12-07T10:24:03.889Z,2.70
2022-12-07T10:29:15.813Z,2.70
2022-12-07T10:34:27.601Z,2.70
2022-12-07T10:39:30.186Z,2.90
2022-12-07T10:44:35.453Z,2.90
2022-12-07T10:49:40.899Z,2.90
2022-12-07T10:55:13.887Z,2.90
2022-12-07T11:00:25.000Z,3.00
2022-12-07T11:05:40.494Z,2.90
2022-12-07T11:11:06.153Z,3.00
2022-12-07T11:16:39.488Z,2.80
2022-12-07T11:22:04.918Z,2.70
2022-12-07T11:27:10.338Z,2.70
2022-12-07T11:32:37.430Z,2.80
2022-12-07T11:43:05.677Z,2.90
2022-12-07T11:48:21.438Z,2.80
2022-12-07T11:53:32.955Z,2.90
2022-12-07T11:59:01.829Z,3.00
2022-12-07T12:04:13.328Z,2.90
2022-12-07T12:09:46.712Z,2.70
2022-12-07T12:15:21.934Z,2.80
2022-12-07T12:20:33.162Z,2.80
2022-12-07T12:25:43.712Z,2.80
2022-12-07T12:30:46.303Z,2.80
2022-12-07T12:36:24.151Z,2.70
2022-12-07T12:41:50.060Z,2.70
2022-12-07T12:47:03.111Z,2.50
2022-12-07T12:52:14.838Z,2.40
2022-12-07T12:57:23.527Z,2.30
2022-12-07T13:02:36.603Z,2.30
2022-12-07T13:07:48.231Z,2.30
2022-12-07T13:13:10.801Z,2.20
2022-12-07T13:18:28.670Z,2.10
2022-12-07T13:23:40.361Z,1.90
2022-12-07T13:28:49.288Z,1.90
2022-12-07T13:33:51.998Z,1.80
2022-12-07T13:38:59.581Z,1.70
2022-12-07T13:44:11.569Z,1.80
2022-12-07T13:49:23.749Z,2.00
2022-12-07T13:54:26.243Z,2.10
2022-12-07T13:59:29.083Z,2.20
2022-12-07T14:04:37.478Z,2.30
2022-12-07T14:09:39.945Z,2.40
2022-12-07T14:14:48.961Z,2.40
2022-12-07T14:19:58.214Z,2.50
2022-12-07T14:25:15.493Z,2.40
2022-12-07T14:30:19.340Z,2.50
2022-12-07T14:35:21.993Z,2.50
2022-12-07T14:40:29.578Z,2.40
2022-12-07T14:45:32.140Z,2.40
2022-12-07T14:56:06.677Z,2.30
2022-12-07T15:01:09.268Z,2.30
2022-12-07T15:06:15.923Z,2.20
2022-12-07T15:11:19.677Z,2.20
2022-12-07T15:16:22.364Z,2.20
2022-12-07T15:21:24.976Z,2.20
2022-12-07T15:26:27.532Z,2.30
2022-12-07T15:31:54.425Z,2.20
2022-12-07T15:36:52.611Z,2.20
2022-12-07T15:41:55.117Z,2.20
2022-12-07T15:46:57.773Z,2.20
2022-12-07T15:52:00.657Z,2.30
2022-12-07T15:57:03.644Z,2.10
2022-12-07T16:02:07.026Z,2.00
2022-12-07T16:07:11.392Z,2.00
2022-12-07T16:12:14.935Z,1.90
2022-12-07T16:17:17.650Z,2.00
2022-12-07T16:22:20.254Z,1.90
2022-12-07T16:27:22.871Z,2.00
2022-12-07T16:32:25.393Z,2.00
2022-12-07T16:37:28.092Z,5.30
2022-12-07T16:42:35.497Z,2.00
2022-12-07T16:47:41.634Z,1.90
2022-12-07T16:52:44.075Z,1.90
2022-12-07T16:57:46.532Z,2.00
2022-12-07T17:02:49.608Z,2.00
2022-12-07T17:07:52.513Z,2.00
2022-12-07T17:12:55.177Z,1.90
2022-12-07T17:17:59.106Z,1.90
2022-12-07T17:23:01.573Z,1.90
2022-12-07T17:28:04.460Z,1.90
2022-12-07T17:33:06.970Z,1.80
2022-12-07T17:38:09.545Z,1.80
2022-12-07T17:43:12.017Z,1.60
2022-12-07T17:48:14.486Z,1.50
2022-12-07T17:53:16.977Z,1.50
2022-12-07T17:58:19.526Z,1.50
2022-12-07T18:03:22.129Z,1.40
2022-12-07T18:08:24.777Z,1.10
2022-12-07T18:13:36.225Z,0.80
2022-12-07T18:18:39.362Z,0.60
2022-12-07T18:23:43.389Z,0.50
2022-12-07T18:28:46.997Z,0.40
2022-12-07T18:33:49.655Z,0.60
2022-12-07T18:38:52.472Z,0.60
2022-12-07T18:43:54.994Z,0.00
2022-12-07T18:48:57.829Z,0.20
2022-12-07T18:54:01.531Z,0.20
2022-12-07T18:59:24.381Z,0.10
2022-12-07T19:04:27.140Z,2.40
2022-12-07T19:09:29.804Z,-0.10
2022-12-07T19:14:36.142Z,-0.20
2022-12-07T19:19:39.943Z,-0.30
2022-12-07T19:24:46.462Z,-0.10
2022-12-07T19:29:49.752Z,-0.10
2022-12-07T19:34:52.674Z,-0.10
2022-12-07T19:39:55.555Z,0.20
2022-12-07T19:44:58.175Z,0.20
2022-12-07T19:50:00.771Z,0.30
2022-12-07T19:55:03.865Z,0.20
2022-12-07T20:00:07.383Z,0.30
2022-12-07T20:05:10.427Z,0.40
2022-12-07T20:10:13.125Z,0.60
2022-12-07T20:15:15.719Z,0.60
2022-12-07T20:20:18.654Z,0.40
2022-12-07T20:25:21.785Z,0.10
2022-12-07T20:30:24.372Z,0.10
2022-12-07T20:35:26.899Z,0.20
2022-12-07T20:40:29.481Z,0.50
2022-12-07T20:45:31.996Z,0.50
2022-12-07T20:50:40.525Z,0.70
2022-12-07T20:55:45.455Z,0.90
2022-12-07T21:00:48.000Z,0.90
2022-12-07T21:05:51.020Z,1.00
2022-12-07T21:10:53.581Z,1.00
2022-12-07T21:15:56.300Z,0.50
2022-12-07T21:21:02.934Z,0.50
2022-12-07T21:26:13.089Z,0.40
2022-12-07T21:31:16.684Z,0.40
2022-12-07T21:36:21.774Z,0.40
2022-12-07T21:41:29.223Z,0.50
2022-12-07T21:46:34.412Z,4.10
2022-12-07T21:51:38.293Z,0.40
2022-12-07T21:56:42.790Z,0.50
2022-12-07T22:01:47.360Z,0.50
2022-12-07T22:06:51.030Z,0.50
2022-12-07T22:11:53.563Z,0.50
2022-12-07T22:16:57.699Z,0.60
2022-12-07T22:22:00.315Z,0.60
2022-12-07T22:27:05.671Z,0.60
2022-12-07T22:32:31.891Z,0.70
2022-12-07T22:37:32.208Z,0.70
2022-12-07T22:42:34.716Z,0.60
2022-12-07T22:47:39.907Z,0.60
2022-12-07T22:52:42.671Z,0.50
2022-12-07T22:57:45.121Z,0.60
2022-12-07T23:02:47.682Z,0.70
2022-12-07T23:07:50.378Z,0.80
2022-12-07T23:13:11.311Z,0.80
2022-12-07T23:18:14.007Z,0.70
2022-12-07T23:23:16.725Z,0.80
2022-12-07T23:28:19.962Z,0.80
2022-12-07T23:33:24.146Z,0.70
2022-12-07T23:38:26.714Z,0.70
2022-12-07T23:43:29.243Z,0.70
2022-12-07T23:48:31.729Z,0.50
2022-12-07T23:53:35.903Z,0.20
2022-12-07T23:58:38.560Z,0.20
